createdAt,value
2023-02-11T00:01:16.404Z,65.05
2023-02-11T00:03:43.705Z,61.53
2023-02-11T00:06:12.045Z,65.10
2023-02-11T00:08:39.726Z,63.55
2023-02-11T00:11:07.799Z,62.50
2023-02-11T00:13:34.988Z,63.70
2023-02-11T00:16:12.161Z,60.50
2023-02-11T00:18:39.861Z,60.88
2023-02-11T00:21:12.158Z,60.40
2023-02-11T00:23:39.679Z,63.05
2023-02-11T00:26:20.755Z,60.78
2023-02-11T00:28:49.913Z,59.70
2023-02-11T00:31:19.109Z,59.10
2023-02-11T00:33:46.943Z,64.43
2023-02-11T00:36:18.583Z,62.70
2023-02-11T00:38:48.702Z,59.65
2023-02-11T00:41:16.852Z,59.28
2023-02-11T00:43:44.334Z,56.85
2023-02-11T00:46:12.090Z,60.90
2023-02-11T00:48:39.626Z,60.03
2023-02-11T00:51:07.846Z,63.03
2023-02-11T00:53:35.795Z,57.92
2023-02-11T00:56:04.040Z,58.97
2023-02-11T00:58:31.323Z,58.78
2023-02-11T01:00:58.949Z,61.45
2023-02-11T01:03:26.744Z,57.80
2023-02-11T01:05:55.849Z,59.83
2023-02-11T01:08:26.534Z,57.85
2023-02-11T01:10:58.906Z,58.42
2023-02-11T01:13:27.276Z,64.32
2023-02-11T01:15:56.380Z,64.20
2023-02-11T01:18:24.904Z,62.88
2023-02-11T01:20:54.011Z,63.45
2023-02-11T01:23:21.650Z,67.28
2023-02-11T01:25:49.792Z,72.18
2023-02-11T01:28:20.860Z,69.50
2023-02-11T01:30:48.208Z,67.05
2023-02-11T01:33:16.072Z,58.97
2023-02-11T01:35:44.059Z,59.88
2023-02-11T01:38:24.445Z,62.80
2023-02-11T01:41:07.415Z,62.53
2023-02-11T01:43:41.433Z,64.68
2023-02-11T01:46:34.629Z,66.18
2023-02-11T01:49:07.232Z,64.47
2023-02-11T01:51:41.718Z,65.72
2023-02-11T01:54:30.740Z,65.88
2023-02-11T01:57:18.668Z,60.08
2023-02-11T01:59:59.376Z,58.90
2023-02-11T02:02:39.585Z,61.75
2023-02-11T02:05:24.917Z,63.15
2023-02-11T02:08:22.716Z,62.17
2023-02-11T02:10:56.326Z,63.10
2023-02-11T02:13:25.148Z,47.38
2023-02-11T02:16:16.463Z,64.43
2023-02-11T02:19:05.421Z,65.32
2023-02-11T02:21:44.620Z,65.32
2023-02-11T02:24:49.489Z,65.35
2023-02-11T02:27:55.543Z,68.47
2023-02-11T02:30:28.749Z,68.55
2023-02-11T02:33:25.475Z,67.57
2023-02-11T02:36:20.341Z,65.60
2023-02-11T02:41:23.571Z,66.78
2023-02-11T02:43:52.061Z,62.95
2023-02-11T02:46:23.041Z,68.07
2023-02-11T02:48:52.878Z,63.40
2023-02-11T02:51:31.263Z,67.22
2023-02-11T02:54:19.812Z,66.90
2023-02-11T02:57:45.351Z,62.83
2023-02-11T03:00:44.228Z,65.90
2023-02-11T03:03:17.261Z,65.65
2023-02-11T03:06:04.128Z,61.83
2023-02-11T03:09:02.144Z,61.53
2023-02-11T03:11:29.860Z,62.35
2023-02-11T03:14:00.533Z,61.35
2023-02-11T03:16:28.503Z,64.60
2023-02-11T03:19:15.656Z,61.25
2023-02-11T03:21:44.586Z,63.55
2023-02-11T03:24:18.620Z,66.97
2023-02-11T03:26:54.323Z,64.75
2023-02-11T03:29:36.776Z,61.08
2023-02-11T03:32:06.888Z,64.05
2023-02-11T03:34:47.996Z,59.92
2023-02-11T03:37:22.056Z,60.40
2023-02-11T03:40:01.265Z,63.13
2023-02-11T03:42:43.804Z,64.15
2023-02-11T03:45:15.169Z,64.82
2023-02-11T03:47:49.146Z,61.45
2023-02-11T03:50:18.167Z,67.57
2023-02-11T03:52:47.693Z,68.03
2023-02-11T03:55:18.966Z,67.68
2023-02-11T03:57:47.293Z,65.05
2023-02-11T04:00:15.331Z,67.43
2023-02-11T04:02:43.582Z,66.07
2023-02-11T04:05:15.080Z,64.05
2023-02-11T04:07:42.353Z,67.60
2023-02-11T04:10:10.029Z,71.45
2023-02-11T04:12:37.644Z,68.85
2023-02-11T04:15:05.354Z,67.78
2023-02-11T04:17:32.699Z,64.63
2023-02-11T04:19:59.988Z,64.88
2023-02-11T04:22:27.240Z,66.55
2023-02-11T04:24:54.539Z,69.90
2023-02-11T04:27:21.838Z,69.50
2023-02-11T04:29:49.101Z,68.78
2023-02-11T04:32:18.457Z,71.25
2023-02-11T04:34:45.705Z,69.82
2023-02-11T04:37:13.145Z,68.70
2023-02-11T04:39:40.720Z,67.30
2023-02-11T04:42:08.272Z,66.38
2023-02-11T04:44:35.701Z,65.00
2023-02-11T04:47:03.259Z,68.57
2023-02-11T04:49:30.499Z,63.70
2023-02-11T04:51:57.776Z,64.13
2023-02-11T04:54:25.121Z,65.28
2023-02-11T04:56:52.331Z,66.97
2023-02-11T04:59:19.519Z,67.32
2023-02-11T05:01:46.861Z,61.83
2023-02-11T05:04:14.224Z,62.90
2023-02-11T05:06:41.594Z,62.80
2023-02-11T05:09:10.897Z,65.57
2023-02-11T05:11:39.488Z,63.28
2023-02-11T05:14:07.264Z,64.63
2023-02-11T05:16:35.402Z,63.42
2023-02-11T05:19:02.687Z,62.78
2023-02-11T05:21:30.038Z,63.67
2023-02-11T05:23:57.355Z,63.65
2023-02-11T05:26:25.246Z,63.95
2023-02-11T05:28:52.582Z,62.58
2023-02-11T05:31:19.830Z,65.47
2023-02-11T05:33:47.113Z,65.75
2023-02-11T05:36:14.417Z,66.97
2023-02-11T05:38:43.352Z,68.97
2023-02-11T05:41:11.370Z,69.28
2023-02-11T05:43:38.720Z,68.97
2023-02-11T05:46:06.629Z,70.10
2023-02-11T05:48:34.210Z,71.28
2023-02-11T05:51:01.558Z,70.75
2023-02-11T05:53:29.902Z,72.68
2023-02-11T05:55:57.590Z,72.60
2023-02-11T05:58:25.026Z,67.13
2023-02-11T06:00:52.284Z,62.63
2023-02-11T06:03:19.606Z,67.88
2023-02-11T06:05:47.209Z,66.00
2023-02-11T06:08:14.587Z,69.55
2023-02-11T06:10:45.014Z,66.38
2023-02-11T06:13:12.913Z,67.03
2023-02-11T06:15:40.184Z,68.00
2023-02-11T06:18:08.115Z,69.00
2023-02-11T06:20:35.847Z,65.10
2023-02-11T06:23:03.735Z,67.40
2023-02-11T06:25:30.882Z,73.30
2023-02-11T06:27:58.179Z,67.13
2023-02-11T06:30:25.413Z,72.03
2023-02-11T06:32:52.886Z,72.38
2023-02-11T06:35:23.229Z,75.80
2023-02-11T06:37:50.623Z,70.32
2023-02-11T06:40:18.079Z,79.35
2023-02-11T06:42:45.447Z,72.45
2023-02-11T06:45:13.457Z,72.82
2023-02-11T06:47:41.062Z,74.13
2023-02-11T06:50:11.253Z,73.18
2023-02-11T06:52:38.699Z,75.10
2023-02-11T06:55:06.461Z,76.50
2023-02-11T06:57:33.758Z,81.15
2023-02-11T07:00:00.949Z,81.68
2023-02-11T07:02:28.603Z,81.32
2023-02-11T07:04:56.026Z,79.93
2023-02-11T07:07:23.437Z,75.65
2023-02-11T07:09:50.747Z,81.25
2023-02-11T07:12:18.000Z,82.90
2023-02-11T07:14:45.348Z,80.68
2023-02-11T07:17:12.589Z,80.78
2023-02-11T07:19:39.831Z,74.55
2023-02-11T07:22:07.077Z,76.78
2023-02-11T07:24:34.470Z,73.05
2023-02-11T07:27:01.720Z,69.97
2023-02-11T07:29:29.135Z,74.45
2023-02-11T07:31:56.482Z,63.88
2023-02-11T07:34:23.830Z,73.25
2023-02-11T07:36:51.140Z,75.63
2023-02-11T07:39:20.045Z,62.88
2023-02-11T07:41:49.017Z,64.65
2023-02-11T07:44:16.274Z,65.60
2023-02-11T07:46:45.276Z,67.10
2023-02-11T07:49:12.952Z,69.03
2023-02-11T07:51:40.271Z,69.20
2023-02-11T07:54:07.637Z,66.90
2023-02-11T07:56:34.844Z,68.63
2023-02-11T07:59:03.550Z,67.63
2023-02-11T08:01:31.422Z,63.20
2023-02-11T08:04:01.027Z,62.30
2023-02-11T08:06:33.745Z,64.88
2023-02-11T08:09:09.625Z,66.00
2023-02-11T08:11:37.051Z,63.05
2023-02-11T08:14:04.395Z,64.68
2023-02-11T08:16:34.450Z,61.72
2023-02-11T08:19:04.761Z,61.58
2023-02-11T08:21:32.241Z,46.08
2023-02-11T08:24:01.276Z,41.45
2023-02-11T08:26:31.886Z,42.35
2023-02-11T08:28:59.415Z,42.25
2023-02-11T08:31:30.285Z,44.10
2023-02-11T08:34:02.466Z,43.17
2023-02-11T08:36:33.386Z,43.53
2023-02-11T08:39:18.597Z,42.85
2023-02-11T08:41:49.218Z,42.20
2023-02-11T08:44:18.173Z,43.13
2023-02-11T08:46:45.822Z,39.40
2023-02-11T08:49:13.240Z,41.75
2023-02-11T08:51:40.577Z,38.67
2023-02-11T08:54:09.865Z,37.10
2023-02-11T08:56:39.248Z,38.40
2023-02-11T08:59:07.141Z,38.95
2023-02-11T09:01:34.549Z,32.63
2023-02-11T09:04:01.775Z,33.42
2023-02-11T09:06:29.687Z,34.90
2023-02-11T09:08:57.892Z,34.08
2023-02-11T09:11:29.190Z,31.23
2023-02-11T09:13:56.854Z,30.25
2023-02-11T09:16:27.116Z,31.75
2023-02-11T09:18:56.249Z,32.97
2023-02-11T09:21:25.039Z,31.52
2023-02-11T09:23:52.508Z,30.48
2023-02-11T09:26:29.263Z,31.27
2023-02-11T09:28:57.329Z,29.52
2023-02-11T09:31:27.757Z,31.50
2023-02-11T09:33:58.377Z,30.58
2023-02-11T09:36:29.083Z,31.98
2023-02-11T09:38:59.007Z,33.58
2023-02-11T09:41:47.017Z,33.13
2023-02-11T09:44:25.265Z,35.83
2023-02-11T09:47:16.614Z,37.60
2023-02-11T09:49:54.142Z,38.10
2023-02-11T09:52:33.862Z,36.88
2023-02-11T09:55:04.527Z,36.05
2023-02-11T09:57:37.100Z,35.90
2023-02-11T10:00:17.084Z,37.90
2023-02-11T10:03:03.136Z,37.28
2023-02-11T10:05:57.510Z,37.45
2023-02-11T10:08:49.852Z,39.38
2023-02-11T10:11:42.191Z,38.45
2023-02-11T10:14:30.353Z,37.42
2023-02-11T10:17:06.153Z,37.25
2023-02-11T10:20:07.343Z,37.20
2023-02-11T10:22:41.946Z,37.95
2023-02-11T10:25:32.422Z,35.80
2023-02-11T10:28:01.510Z,35.20
2023-02-11T10:30:33.589Z,33.63
2023-02-11T10:33:04.377Z,32.45
2023-02-11T10:35:32.510Z,32.60
2023-02-11T10:38:00.155Z,38.15
2023-02-11T10:40:29.643Z,35.58
2023-02-11T10:43:00.772Z,34.30
2023-02-11T10:45:35.070Z,32.60
2023-02-11T10:50:34.983Z,33.15
2023-02-11T10:53:21.830Z,32.55
2023-02-11T10:55:54.758Z,31.08
2023-02-11T10:58:45.155Z,32.63
2023-02-11T11:01:23.843Z,32.95
2023-02-11T11:03:52.957Z,30.67
2023-02-11T11:06:38.269Z,29.05
2023-02-11T11:09:05.465Z,31.45
2023-02-11T11:11:32.831Z,30.40
2023-02-11T11:14:03.296Z,31.10
2023-02-11T11:16:35.662Z,29.95
2023-02-11T11:19:08.669Z,29.20
2023-02-11T11:21:44.803Z,29.95
2023-02-11T11:24:40.433Z,30.35
2023-02-11T11:27:16.949Z,27.50
2023-02-11T11:29:53.779Z,30.67
2023-02-11T11:32:35.910Z,29.27
2023-02-11T11:35:09.741Z,30.90
2023-02-11T11:37:38.963Z,28.77
2023-02-11T11:40:28.601Z,27.83
2023-02-11T11:43:16.894Z,27.75
2023-02-11T11:45:57.013Z,26.95
2023-02-11T11:48:37.402Z,29.42
2023-02-11T11:51:07.167Z,28.55
2023-02-11T11:54:25.560Z,27.15
2023-02-11T11:57:00.768Z,25.65
2023-02-11T11:59:28.647Z,27.55
2023-02-11T12:02:39.282Z,27.63
2023-02-11T12:05:33.263Z,25.65
2023-02-11T12:08:30.979Z,32.17
2023-02-11T12:11:12.676Z,31.10
2023-02-11T12:14:04.343Z,27.20
2023-02-11T12:16:52.202Z,29.23
2023-02-11T12:19:31.061Z,31.02
2023-02-11T12:22:09.891Z,31.50
2023-02-11T12:24:39.836Z,33.38
2023-02-11T12:27:13.710Z,34.33
2023-02-11T12:30:02.132Z,30.05
2023-02-11T12:32:48.085Z,31.65
2023-02-11T12:35:40.135Z,30.58
2023-02-11T12:38:37.781Z,28.45
2023-02-11T12:41:47.899Z,29.92
2023-02-11T12:44:29.234Z,32.80
2023-02-11T12:47:11.656Z,30.30
2023-02-11T12:50:16.727Z,31.90
2023-02-11T12:53:08.432Z,30.20
2023-02-11T12:55:40.326Z,29.10
2023-02-11T12:58:20.247Z,31.13
2023-02-11T13:00:55.009Z,29.75
2023-02-11T13:03:35.202Z,30.45
2023-02-11T13:06:15.477Z,43.08
2023-02-11T13:09:09.746Z,33.50
2023-02-11T13:11:44.106Z,29.73
2023-02-11T13:14:41.353Z,30.65
2023-02-11T13:17:22.586Z,27.27
2023-02-11T13:19:58.133Z,28.52
2023-02-11T13:22:41.446Z,27.48
2023-02-11T13:25:11.419Z,26.33
2023-02-11T13:27:45.588Z,25.40
2023-02-11T13:30:33.632Z,24.60
2023-02-11T13:33:01.077Z,24.75
2023-02-11T13:35:37.052Z,24.83
2023-02-11T13:38:22.932Z,26.92
2023-02-11T13:41:33.689Z,24.75
2023-02-11T13:44:11.357Z,24.42
2023-02-11T13:46:58.342Z,21.40
2023-02-11T13:49:42.976Z,20.60
2023-02-11T13:52:37.638Z,23.63
2023-02-11T13:55:13.994Z,26.00
2023-02-11T13:57:42.045Z,22.13
2023-02-11T14:00:47.059Z,20.98
2023-02-11T14:03:32.910Z,20.92
2023-02-11T14:06:27.320Z,24.25
2023-02-11T14:09:09.592Z,22.35
2023-02-11T14:11:45.424Z,21.60
2023-02-11T14:14:25.313Z,24.60
2023-02-11T14:17:01.677Z,25.08
2023-02-11T14:19:40.224Z,24.00
2023-02-11T14:22:28.742Z,24.38
2023-02-11T14:25:01.591Z,24.42
2023-02-11T14:27:54.617Z,27.40
2023-02-11T14:30:24.752Z,27.98
2023-02-11T14:32:58.606Z,25.33
2023-02-11T14:35:53.376Z,18.92
2023-02-11T14:38:35.177Z,26.25
2023-02-11T14:41:23.082Z,26.55
2023-02-11T14:44:04.616Z,26.00
2023-02-11T14:46:33.738Z,28.08
2023-02-11T14:49:03.881Z,27.02
2023-02-11T14:51:32.174Z,28.10
2023-02-11T14:54:18.948Z,27.27
2023-02-11T14:56:46.962Z,25.40
2023-02-11T14:59:22.488Z,29.38
2023-02-11T15:01:51.521Z,28.10
2023-02-11T15:04:34.628Z,29.25
2023-02-11T15:07:08.461Z,27.95
2023-02-11T15:09:49.053Z,28.25
2023-02-11T15:12:28.974Z,25.05
2023-02-11T15:14:59.024Z,27.80
2023-02-11T15:17:30.037Z,27.13
2023-02-11T15:20:00.410Z,27.38
2023-02-11T15:22:38.195Z,26.98
2023-02-11T15:25:08.496Z,29.10
2023-02-11T15:27:41.554Z,28.50
2023-02-11T15:30:23.785Z,27.60
2023-02-11T15:33:03.503Z,29.88
2023-02-11T15:35:35.195Z,30.15
2023-02-11T15:38:02.818Z,32.22
2023-02-11T15:40:33.194Z,34.72
2023-02-11T15:43:03.387Z,31.85
2023-02-11T15:45:30.602Z,35.08
2023-02-11T15:48:20.290Z,35.97
2023-02-11T15:50:56.677Z,32.55
2023-02-11T15:53:29.969Z,35.08
2023-02-11T15:56:11.050Z,36.20
2023-02-11T15:58:40.950Z,33.67
2023-02-11T16:01:09.967Z,33.40
2023-02-11T16:03:37.251Z,30.48
2023-02-11T16:06:24.163Z,31.02
2023-02-11T16:09:23.293Z,30.63
2023-02-11T16:11:50.440Z,31.77
2023-02-11T16:14:39.189Z,32.22
2023-02-11T16:17:18.566Z,31.35
2023-02-11T16:19:47.814Z,33.58
2023-02-11T16:22:24.428Z,32.17
2023-02-11T16:24:54.884Z,34.00
2023-02-11T16:27:30.567Z,34.90
2023-02-11T16:29:58.735Z,32.22
2023-02-11T16:32:28.747Z,31.17
2023-02-11T16:34:58.880Z,31.17
2023-02-11T16:37:26.664Z,32.47
2023-02-11T16:39:55.260Z,30.00
2023-02-11T16:42:23.397Z,31.25
2023-02-11T16:44:50.698Z,30.65
2023-02-11T16:47:23.564Z,31.70
2023-02-11T16:49:51.035Z,30.35
2023-02-11T16:52:20.357Z,28.75
2023-02-11T16:54:48.026Z,31.02
2023-02-11T16:57:17.897Z,32.45
2023-02-11T16:59:45.456Z,32.88
2023-02-11T17:02:31.201Z,34.08
2023-02-11T17:05:04.647Z,37.20
2023-02-11T17:07:32.095Z,34.25
2023-02-11T17:09:59.925Z,32.15
2023-02-11T17:12:27.214Z,34.47
2023-02-11T17:14:54.517Z,39.35
2023-02-11T17:17:23.912Z,43.95
2023-02-11T17:19:51.459Z,42.42
2023-02-11T17:22:18.982Z,43.15
2023-02-11T17:24:46.261Z,47.38
2023-02-11T17:27:13.902Z,52.55
2023-02-11T17:29:41.218Z,57.67
2023-02-11T17:32:09.420Z,62.75
2023-02-11T17:34:36.647Z,57.20
2023-02-11T17:37:09.154Z,51.20
2023-02-11T17:39:38.181Z,46.97
2023-02-11T17:42:06.613Z,48.15
2023-02-11T17:44:34.262Z,47.20
2023-02-11T17:47:01.500Z,46.45
2023-02-11T17:49:28.862Z,46.08
2023-02-11T17:51:56.575Z,47.53
2023-02-11T17:54:24.864Z,47.05
2023-02-11T17:56:55.114Z,45.28
2023-02-11T17:59:25.527Z,48.53
2023-02-11T18:01:52.904Z,57.55
2023-02-11T18:04:20.591Z,58.13
2023-02-11T18:06:47.976Z,48.63
2023-02-11T18:09:18.148Z,58.75
2023-02-11T18:11:46.152Z,57.85
2023-02-11T18:14:13.386Z,52.97
2023-02-11T18:16:43.252Z,73.38
2023-02-11T18:19:12.080Z,59.30
2023-02-11T18:21:39.642Z,57.75
2023-02-11T18:24:07.386Z,71.20
2023-02-11T18:26:35.390Z,63.17
2023-02-11T18:29:03.958Z,63.17
2023-02-11T18:31:31.578Z,78.20
2023-02-11T18:33:59.825Z,66.47
2023-02-11T18:36:27.172Z,63.58
2023-02-11T18:38:54.478Z,64.07
2023-02-11T18:41:22.648Z,61.28
2023-02-11T18:43:50.066Z,61.55
2023-02-11T18:46:17.615Z,63.05
2023-02-11T18:48:45.202Z,58.55
2023-02-11T18:51:16.017Z,57.85
2023-02-11T18:53:43.654Z,61.60
2023-02-11T18:56:14.142Z,57.78
2023-02-11T18:58:41.511Z,55.97
2023-02-11T19:01:27.509Z,51.42
2023-02-11T19:03:59.939Z,55.92
2023-02-11T19:06:29.191Z,55.28
2023-02-11T19:09:00.155Z,52.35
2023-02-11T19:11:49.002Z,51.67
2023-02-11T19:14:20.277Z,52.97
2023-02-11T19:16:50.650Z,54.90
2023-02-11T19:19:18.409Z,55.10
2023-02-11T19:21:47.422Z,59.00
2023-02-11T19:24:18.933Z,56.75
2023-02-11T19:26:47.742Z,54.45
2023-02-11T19:29:15.555Z,54.88
2023-02-11T19:31:43.603Z,60.28
2023-02-11T19:34:13.413Z,66.13
2023-02-11T19:36:41.172Z,67.90
2023-02-11T19:39:09.074Z,74.78
2023-02-11T19:41:36.341Z,76.53
2023-02-11T19:44:05.080Z,76.30
2023-02-11T19:46:35.700Z,78.20
2023-02-11T19:49:04.486Z,83.40
2023-02-11T19:51:37.552Z,71.90
2023-02-11T19:54:06.913Z,68.93
2023-02-11T19:56:34.204Z,62.40
2023-02-11T19:59:02.914Z,70.97
2023-02-11T20:01:30.496Z,71.07
2023-02-11T20:03:57.809Z,68.28
2023-02-11T20:06:29.075Z,65.38
2023-02-11T20:09:11.239Z,61.08
2023-02-11T20:11:39.147Z,60.03
2023-02-11T20:14:07.088Z,60.28
2023-02-11T20:16:47.534Z,68.82
2023-02-11T20:19:18.715Z,66.78
2023-02-11T20:21:48.263Z,70.03
2023-02-11T20:24:17.603Z,67.38
2023-02-11T20:26:46.647Z,65.15
2023-02-11T20:29:15.450Z,65.47
2023-02-11T20:31:43.263Z,63.88
2023-02-11T20:34:11.963Z,65.10
2023-02-11T20:36:40.683Z,63.65
2023-02-11T20:39:11.660Z,64.30
2023-02-11T20:41:40.029Z,62.58
2023-02-11T20:44:10.031Z,62.00
2023-02-11T20:46:40.366Z,63.33
2023-02-11T20:49:08.839Z,63.70
2023-02-11T20:51:37.447Z,69.22
2023-02-11T20:54:06.380Z,63.47
2023-02-11T20:56:36.854Z,63.00
2023-02-11T20:59:05.315Z,61.58
2023-02-11T21:01:35.784Z,60.50
2023-02-11T21:04:06.622Z,58.65
2023-02-11T21:06:39.783Z,54.67
2023-02-11T21:09:09.352Z,56.33
2023-02-11T21:11:36.897Z,55.70
2023-02-11T21:14:04.178Z,56.25
2023-02-11T21:16:32.740Z,57.67
2023-02-11T21:19:00.668Z,54.60
2023-02-11T21:21:27.953Z,57.05
2023-02-11T21:23:56.193Z,52.90
2023-02-11T21:26:23.444Z,56.72
2023-02-11T21:28:52.021Z,55.17
2023-02-11T21:31:22.280Z,47.65
2023-02-11T21:33:50.900Z,50.92
2023-02-11T21:36:18.418Z,48.60
2023-02-11T21:38:45.814Z,49.63
2023-02-11T21:41:13.298Z,50.60
2023-02-11T21:43:40.560Z,49.90
2023-02-11T21:46:10.565Z,49.90
2023-02-11T21:48:38.232Z,49.25
2023-02-11T21:51:08.067Z,54.25
2023-02-11T21:53:35.975Z,52.97
2023-02-11T21:56:12.332Z,50.25
2023-02-11T21:58:39.653Z,46.95
2023-02-11T22:01:22.084Z,48.40
2023-02-11T22:03:49.947Z,48.45
2023-02-11T22:06:23.099Z,49.67
2023-02-11T22:08:50.998Z,49.10
2023-02-11T22:11:18.757Z,45.40
2023-02-11T22:13:46.985Z,46.78
2023-02-11T22:16:16.394Z,46.03
2023-02-11T22:18:46.598Z,44.85
2023-02-11T22:21:17.736Z,41.42
2023-02-11T22:23:45.496Z,43.45
2023-02-11T22:26:16.104Z,45.80
2023-02-11T22:28:44.204Z,45.45
2023-02-11T22:31:19.796Z,47.95
2023-02-11T22:33:47.690Z,45.92
2023-02-11T22:36:19.325Z,46.95
2023-02-11T22:38:47.406Z,46.03
2023-02-11T22:41:15.234Z,46.33
2023-02-11T22:43:43.573Z,48.38
2023-02-11T22:46:14.087Z,46.95
2023-02-11T22:48:41.966Z,46.25
2023-02-11T22:51:11.970Z,50.08
2023-02-11T22:53:39.162Z,48.70
2023-02-11T22:56:08.716Z,49.78
2023-02-11T22:58:37.064Z,51.05
2023-02-11T23:01:05.389Z,49.10
2023-02-11T23:03:33.854Z,50.28
2023-02-11T23:06:01.483Z,51.97
2023-02-11T23:08:30.362Z,49.03
2023-02-11T23:11:12.951Z,48.97
2023-02-11T23:13:41.700Z,50.50
2023-02-11T23:16:12.713Z,49.25
2023-02-11T23:18:42.088Z,52.03
2023-02-11T23:21:18.148Z,52.70
2023-02-11T23:23:45.780Z,52.28
2023-02-11T23:26:14.998Z,54.03
2023-02-11T23:28:45.154Z,55.92
2023-02-11T23:31:17.880Z,54.00
2023-02-11T23:33:46.262Z,53.13
2023-02-11T23:36:14.490Z,52.78
2023-02-11T23:38:42.182Z,48.55
2023-02-11T23:41:10.458Z,49.78
2023-02-11T23:43:37.882Z,48.35
2023-02-11T23:46:05.989Z,50.15
2023-02-11T23:48:36.015Z,53.97
2023-02-11T23:51:04.447Z,52.63
2023-02-11T23:53:31.640Z,51.97
2023-02-11T23:55:58.893Z,53.30
2023-02-11T23:58:26.200Z,51.97
